createdAt,value
2023-03-17T00:00:16.284Z,0
2023-03-17T00:05:38.932Z,0
2023-03-17T00:11:22.270Z,0
2023-03-17T00:16:45.342Z,0
2023-03-17T00:22:10.599Z,0
2023-03-17T00:27:33.437Z,0
2023-03-17T00:33:01.818Z,0
2023-03-17T00:38:24.655Z,0
2023-03-17T00:43:55.973Z,0
2023-03-17T00:49:18.531Z,0
2023-03-17T00:54:40.874Z,0
2023-03-17T01:00:43.856Z,0
2023-03-17T01:06:07.426Z,0
2023-03-17T01:11:32.391Z,0
2023-03-17T01:16:54.973Z,0
2023-03-17T01:22:17.605Z,0
2023-03-17T01:27:43.603Z,0
2023-03-17T01:33:06.527Z,0
2023-03-17T01:38:28.822Z,0
2023-03-17T01:43:51.294Z,0
2023-03-17T01:49:13.784Z,0
2023-03-17T01:54:39.335Z,0
2023-03-17T02:00:09.104Z,0
2023-03-17T02:05:31.786Z,0
2023-03-17T02:10:56.617Z,0
2023-03-17T02:16:19.488Z,0
2023-03-17T02:21:42.177Z,0
2023-03-17T02:27:04.820Z,0
2023-03-17T02:32:27.483Z,0
2023-03-17T02:38:37.794Z,0
2023-03-17T02:44:00.895Z,0
2023-03-17T02:49:23.166Z,0
2023-03-17T02:54:54.842Z,0
2023-03-17T03:00:17.341Z,0
2023-03-17T03:05:40.152Z,0
2023-03-17T03:11:02.768Z,0
2023-03-17T03:16:35.825Z,0
2023-03-17T03:21:58.474Z,0
2023-03-17T03:27:21.395Z,0
2023-03-17T03:32:43.880Z,0
2023-03-17T03:38:06.476Z,0
2023-03-17T03:43:28.946Z,0
2023-03-17T03:48:54.377Z,0
2023-03-17T03:54:20.036Z,0
2023-03-17T03:59:42.795Z,0
2023-03-17T04:05:05.967Z,0
2023-03-17T04:10:29.881Z,0
2023-03-17T04:15:52.677Z,0
2023-03-17T04:21:22.448Z,0
2023-03-17T04:26:44.926Z,0
2023-03-17T04:32:07.526Z,0
2023-03-17T04:37:29.940Z,0
2023-03-17T04:42:58.263Z,0
2023-03-17T04:48:20.678Z,0
2023-03-17T04:53:43.231Z,0
2023-03-17T04:59:05.800Z,0
2023-03-17T05:04:32.806Z,0
2023-03-17T05:09:58.130Z,0
2023-03-17T05:15:20.931Z,0
2023-03-17T05:20:43.917Z,0
2023-03-17T05:26:09.746Z,0
2023-03-17T05:31:41.402Z,0
2023-03-17T05:37:04.033Z,2
2023-03-17T05:42:26.581Z,12.1
2023-03-17T05:47:51.942Z,23
2023-03-17T05:53:16.942Z,30.6
2023-03-17T05:58:39.289Z,38.5
2023-03-17T06:04:01.861Z,53.5
2023-03-17T06:10:04.768Z,75.9
2023-03-17T06:15:28.432Z,90.8
2023-03-17T06:21:12.221Z,107.3
2023-03-17T06:26:35.146Z,131.8
2023-03-17T06:32:21.014Z,160
2023-03-17T06:37:44.556Z,208.5
2023-03-17T06:43:09.222Z,268.5
2023-03-17T06:48:32.041Z,311
2023-03-17T06:53:57.520Z,337.9
2023-03-17T06:59:20.167Z,362
2023-03-17T07:34:57.784Z,509.9
2023-03-17T07:40:25.982Z,523.5
2023-03-17T07:45:48.755Z,509.4
2023-03-17T07:51:11.381Z,586.7
2023-03-17T07:56:34.366Z,651.1
2023-03-17T08:01:57.737Z,625.6
2023-03-17T08:12:31.910Z,660.6
2023-03-17T08:17:54.727Z,588.4
2023-03-17T08:23:17.111Z,668.9
2023-03-17T08:34:12.036Z,1003.1
2023-03-17T08:44:55.289Z,2024.4
2023-03-17T08:50:28.622Z,1762.4
2023-03-17T08:56:02.076Z,1420.2
2023-03-17T09:01:24.430Z,1170.1
2023-03-17T09:07:09.092Z,1114.6
2023-03-17T09:12:57.121Z,1212.5
2023-03-17T09:18:22.408Z,1471.1
2023-03-17T09:23:54.673Z,1659.1
2023-03-17T09:29:24.731Z,1663.7
2023-03-17T09:34:52.042Z,1515.3
2023-03-17T09:40:14.308Z,990.2
2023-03-17T09:45:57.649Z,1387.3
2023-03-17T09:51:20.736Z,1304.1
2023-03-17T09:56:46.610Z,1374.6
2023-03-17T10:02:11.317Z,1667.5
2023-03-17T10:07:35.803Z,2809.6
2023-03-17T10:13:00.418Z,2933.5
2023-03-17T10:18:23.583Z,2861
2023-03-17T10:23:46.482Z,2551.7
2023-03-17T10:29:09.458Z,2446.7
2023-03-17T10:34:32.403Z,3087.7
2023-03-17T10:39:55.798Z,3178.4
2023-03-17T10:45:21.802Z,3011.1
2023-03-17T10:50:44.325Z,2722
2023-03-17T10:56:06.473Z,1165.3
2023-03-17T11:01:33.586Z,2562.1
2023-03-17T11:06:56.428Z,1558.7
2023-03-17T11:23:41.002Z,1847.1
2023-03-17T11:29:04.065Z,2667.5
2023-03-17T11:34:26.807Z,2471.7
2023-03-17T11:39:49.232Z,1933
2023-03-17T11:45:12.485Z,1806.9
2023-03-17T11:50:56.288Z,2000.8
2023-03-17T11:56:19.233Z,1679.3
2023-03-17T12:01:41.606Z,1570.2
2023-03-17T12:07:24.855Z,2147.7
2023-03-17T12:12:47.820Z,1667.3
2023-03-17T12:18:19.184Z,1683.2
2023-03-17T12:23:42.082Z,1819.3
2023-03-17T12:29:05.114Z,2067.2
2023-03-17T12:34:27.801Z,1688.3
2023-03-17T12:39:50.197Z,1760.7
2023-03-17T12:45:13.415Z,1883.4
2023-03-17T12:50:36.186Z,2207.1
2023-03-17T12:55:59.752Z,2753.4
2023-03-17T13:01:23.060Z,2167.1
2023-03-17T13:06:46.259Z,2193.9
2023-03-17T13:12:08.980Z,1847.9
2023-03-17T13:17:31.454Z,1356.2
2023-03-17T13:22:53.866Z,1467
2023-03-17T13:28:15.873Z,1452
2023-03-17T13:33:38.735Z,1423.1
2023-03-17T13:39:24.292Z,1118.8
2023-03-17T13:44:47.125Z,1114.4
2023-03-17T13:50:15.468Z,986.3
2023-03-17T13:55:40.809Z,940.7
2023-03-17T14:01:03.559Z,892.9
2023-03-17T14:06:25.973Z,1097.7
2023-03-17T14:11:52.523Z,1548.3
2023-03-17T14:17:14.268Z,986.9
2023-03-17T14:22:47.414Z,1591.4
2023-03-17T14:28:11.666Z,658.4
2023-03-17T14:33:33.878Z,963.8
2023-03-17T14:38:56.757Z,619.3
2023-03-17T14:44:18.931Z,522
2023-03-17T14:49:41.173Z,516
2023-03-17T14:55:03.904Z,627.4
2023-03-17T15:00:27.367Z,491.7
2023-03-17T15:05:49.668Z,352.7
2023-03-17T15:11:20.632Z,351.5
2023-03-17T15:16:44.070Z,346.4
2023-03-17T15:22:06.542Z,346.6
2023-03-17T15:27:29.085Z,326.1
2023-03-17T15:32:52.003Z,322.1
2023-03-17T15:38:14.736Z,354.6
2023-03-17T15:43:40.581Z,342.1
2023-03-17T15:49:03.386Z,308.9
2023-03-17T15:54:25.930Z,282.3
2023-03-17T15:59:48.260Z,218.3
2023-03-17T16:05:10.706Z,192.2
2023-03-17T16:10:34.226Z,115
2023-03-17T16:15:57.188Z,108.7
2023-03-17T16:21:19.749Z,125.1
2023-03-17T16:26:42.690Z,128.1
2023-03-17T16:32:05.386Z,107
2023-03-17T16:37:29.694Z,91.3
2023-03-17T16:42:52.553Z,74.1
2023-03-17T16:48:16.314Z,49
2023-03-17T16:53:38.697Z,43.3
2023-03-17T16:59:00.995Z,32.1
2023-03-17T17:04:23.376Z,14
2023-03-17T17:09:45.892Z,26
2023-03-17T17:15:15.553Z,15
2023-03-17T17:20:38.117Z,16
2023-03-17T17:26:00.377Z,14
2023-03-17T17:31:23.473Z,6
2023-03-17T17:36:46.465Z,9
2023-03-17T17:42:09.167Z,11
2023-03-17T17:47:32.711Z,1
2023-03-17T17:52:55.365Z,0
2023-03-17T17:58:18.103Z,0
2023-03-17T18:03:40.787Z,0
2023-03-17T18:09:03.300Z,0
2023-03-17T18:14:25.810Z,0
2023-03-17T18:19:49.039Z,0
2023-03-17T18:25:11.490Z,0
2023-03-17T18:30:35.860Z,0
2023-03-17T18:35:58.774Z,0
2023-03-17T18:41:21.361Z,0
2023-03-17T18:46:44.028Z,0
2023-03-17T18:52:06.525Z,0
2023-03-17T18:57:28.802Z,0
2023-03-17T19:08:30.406Z,0
2023-03-17T19:13:53.174Z,0
2023-03-17T19:19:16.776Z,0
2023-03-17T19:24:39.542Z,0
2023-03-17T19:30:02.539Z,0
2023-03-17T19:35:25.251Z,0
2023-03-17T19:40:48.026Z,0
2023-03-17T19:46:11.262Z,0
2023-03-17T19:51:33.749Z,0
2023-03-17T19:56:56.286Z,0
2023-03-17T20:02:21.775Z,0
2023-03-17T20:07:44.595Z,0
2023-03-17T20:13:07.609Z,0
2023-03-17T20:18:33.303Z,0
2023-03-17T20:23:56.558Z,0
2023-03-17T20:29:24.389Z,0
2023-03-17T20:34:47.262Z,0
2023-03-17T20:40:12.172Z,0
2023-03-17T20:45:35.020Z,0
2023-03-17T20:51:00.010Z,0
2023-03-17T20:56:29.937Z,0
2023-03-17T21:01:53.363Z,0
2023-03-17T21:07:19.542Z,0
2023-03-17T21:12:42.124Z,0
2023-03-17T21:18:04.830Z,0
2023-03-17T21:23:27.342Z,0
2023-03-17T21:28:52.788Z,0
2023-03-17T21:34:15.638Z,0
2023-03-17T21:39:38.188Z,0
2023-03-17T21:45:00.668Z,0
2023-03-17T21:50:23.614Z,0
2023-03-17T21:55:46.037Z,0
2023-03-17T22:01:08.719Z,0
2023-03-17T22:06:40.511Z,0
2023-03-17T22:12:03.405Z,0
2023-03-17T22:17:31.851Z,0
2023-03-17T22:22:54.409Z,0
2023-03-17T22:28:21.059Z,0
2023-03-17T22:33:43.470Z,0
2023-03-17T22:39:05.919Z,0
2023-03-17T22:44:28.324Z,0
2023-03-17T22:50:02.229Z,0
2023-03-17T22:55:25.127Z,0
2023-03-17T23:00:47.854Z,0
2023-03-17T23:06:10.468Z,0
2023-03-17T23:11:40.816Z,0
2023-03-17T23:17:03.717Z,0
2023-03-17T23:22:26.198Z,0
2023-03-17T23:27:48.901Z,0
2023-03-17T23:33:11.478Z,0
2023-03-17T23:39:03.458Z,0
2023-03-17T23:44:26.096Z,0
2023-03-17T23:49:50.896Z,0
2023-03-17T23:55:13.858Z,0
